createdAt,value
2023-05-24T00:01:52.877Z,98995.00
2023-05-24T00:04:25.497Z,99012.00
2023-05-24T00:06:56.566Z,99004.00
2023-05-24T00:09:27.481Z,99001.00
2023-05-24T00:11:58.775Z,99006.00
2023-05-24T00:14:30.300Z,99007.00
2023-05-24T00:17:01.500Z,99019.00
2023-05-24T00:19:32.500Z,98997.00
2023-05-24T00:22:03.489Z,98999.00
2023-05-24T00:24:34.431Z,98994.00
2023-05-24T00:27:06.079Z,98992.00
2023-05-24T00:29:37.025Z,98998.00
2023-05-24T00:32:08.078Z,98990.00
2023-05-24T00:34:38.988Z,98989.00
2023-05-24T00:37:09.956Z,98988.00
2023-05-24T00:39:41.434Z,98982.00
2023-05-24T00:42:12.376Z,98980.00
2023-05-24T00:44:43.407Z,98977.00
2023-05-24T00:47:14.633Z,98980.00
2023-05-24T00:49:45.858Z,98991.00
2023-05-24T00:52:17.543Z,98981.00
2023-05-24T00:54:49.085Z,98970.00
2023-05-24T00:57:21.791Z,98964.00
2023-05-24T00:59:53.146Z,98970.00
2023-05-24T01:02:25.434Z,98969.00
2023-05-24T01:04:57.519Z,98975.00
2023-05-24T01:07:45.196Z,98974.00
2023-05-24T01:11:05.042Z,98986.00
2023-05-24T01:14:16.339Z,98979.00
2023-05-24T01:17:15.038Z,98980.00
2023-05-24T01:19:52.253Z,98998.00
2023-05-24T01:23:01.134Z,98985.00
2023-05-24T01:26:19.042Z,98985.00
2023-05-24T01:28:51.373Z,98970.00
2023-05-24T01:31:23.126Z,98978.00
2023-05-24T01:33:54.140Z,98984.00
2023-05-24T01:36:25.037Z,98982.00
2023-05-24T01:38:56.268Z,98981.00
2023-05-24T01:42:21.041Z,98973.00
2023-05-24T01:45:17.983Z,98976.00
2023-05-24T01:48:23.514Z,98985.00
2023-05-24T01:51:08.004Z,98995.00
2023-05-24T01:53:47.608Z,98990.00
2023-05-24T01:56:20.842Z,98990.00
2023-05-24T01:58:54.291Z,98997.00
2023-05-24T02:01:26.856Z,99004.00
2023-05-24T02:03:59.474Z,98993.00
2023-05-24T02:06:30.556Z,98992.00
2023-05-24T02:09:01.533Z,98998.00
2023-05-24T02:11:32.476Z,98993.00
2023-05-24T02:14:03.399Z,98998.00
2023-05-24T02:16:34.380Z,99001.00
2023-05-24T02:19:05.484Z,98995.00
2023-05-24T02:21:36.558Z,99004.00
2023-05-24T02:24:08.028Z,98993.00
2023-05-24T02:26:39.357Z,99002.00
2023-05-24T02:29:10.616Z,98998.00
2023-05-24T02:31:41.644Z,99000.00
2023-05-24T02:34:19.251Z,99001.00
2023-05-24T02:36:51.627Z,99002.00
2023-05-24T02:39:22.716Z,99003.00
2023-05-24T02:41:53.681Z,98991.00
2023-05-24T02:44:24.684Z,98999.00
2023-05-24T02:46:55.712Z,99003.00
2023-05-24T02:49:26.711Z,99008.00
2023-05-24T02:51:57.630Z,98999.00
2023-05-24T02:54:28.526Z,98999.00
2023-05-24T02:56:59.447Z,99005.00
2023-05-24T02:59:31.227Z,99004.00
2023-05-24T03:02:02.266Z,98995.00
2023-05-24T03:04:33.259Z,98997.00
2023-05-24T03:07:04.376Z,98999.00
2023-05-24T03:09:35.568Z,98998.00
2023-05-24T03:12:07.010Z,98995.00
2023-05-24T03:14:37.874Z,98995.00
2023-05-24T03:17:08.804Z,99010.00
2023-05-24T03:19:39.696Z,99011.00
2023-05-24T03:22:10.708Z,99002.00
2023-05-24T03:24:41.660Z,99003.00
2023-05-24T03:27:12.575Z,99003.00
2023-05-24T03:29:43.500Z,99000.00
2023-05-24T03:32:14.496Z,98994.00
2023-05-24T03:34:45.478Z,98990.00
2023-05-24T03:37:16.480Z,98994.00
2023-05-24T03:39:47.396Z,98998.00
2023-05-24T03:42:18.378Z,98999.00
2023-05-24T03:44:49.375Z,99007.00
2023-05-24T03:47:20.393Z,99003.00
2023-05-24T03:49:51.639Z,99009.00
2023-05-24T03:52:22.705Z,99006.00
2023-05-24T03:54:53.673Z,99004.00
2023-05-24T03:57:24.737Z,99009.00
2023-05-24T03:59:55.848Z,99002.00
2023-05-24T04:02:27.188Z,98997.00
2023-05-24T04:04:58.177Z,98996.00
2023-05-24T04:07:29.120Z,98986.00
2023-05-24T04:10:00.561Z,98989.00
2023-05-24T04:12:32.315Z,98981.00
2023-05-24T04:15:03.760Z,98994.00
2023-05-24T04:17:35.317Z,98987.00
2023-05-24T04:20:07.262Z,98991.00
2023-05-24T04:22:38.417Z,98987.00
2023-05-24T04:25:10.080Z,98989.00
2023-05-24T04:27:41.349Z,98992.00
2023-05-24T04:30:12.661Z,98991.00
2023-05-24T04:32:47.473Z,98994.00
2023-05-24T04:35:19.488Z,98993.00
2023-05-24T04:37:50.544Z,98997.00
2023-05-24T04:40:21.587Z,99004.00
2023-05-24T04:42:52.512Z,98998.00
2023-05-24T04:45:23.501Z,99001.00
2023-05-24T04:47:54.493Z,99009.00
2023-05-24T04:50:25.790Z,99003.00
2023-05-24T04:52:56.717Z,99010.00
2023-05-24T04:55:27.645Z,99025.00
2023-05-24T04:57:58.666Z,99023.00
2023-05-24T05:00:30.223Z,99023.00
2023-05-24T05:03:01.373Z,99036.00
2023-05-24T05:05:32.399Z,99019.00
2023-05-24T05:08:03.998Z,99032.00
2023-05-24T05:10:36.242Z,99028.00
2023-05-24T05:13:07.255Z,99035.00
2023-05-24T05:15:38.319Z,99038.00
2023-05-24T05:18:09.332Z,99033.00
2023-05-24T05:20:40.565Z,99041.00
2023-05-24T05:23:11.643Z,99032.00
2023-05-24T05:25:42.630Z,99034.00
2023-05-24T05:28:13.562Z,99030.00
2023-05-24T05:30:44.706Z,99055.00
2023-05-24T05:33:15.834Z,99035.00
2023-05-24T05:35:46.832Z,99027.00
2023-05-24T05:38:17.796Z,99026.00
2023-05-24T05:40:48.741Z,99025.00
2023-05-24T05:43:19.795Z,99026.00
2023-05-24T05:45:50.910Z,99032.00
2023-05-24T05:48:21.989Z,99052.00
2023-05-24T05:50:53.195Z,99033.00
2023-05-24T05:53:25.187Z,99026.00
2023-05-24T05:55:56.646Z,99020.00
2023-05-24T05:58:27.581Z,99016.00
2023-05-24T06:00:58.553Z,99027.00
2023-05-24T06:03:29.749Z,99023.00
2023-05-24T06:06:01.083Z,99036.00
2023-05-24T06:08:35.197Z,99022.00
2023-05-24T06:11:07.911Z,99033.00
2023-05-24T06:13:39.944Z,99025.00
2023-05-24T06:16:11.258Z,99018.00
2023-05-24T06:18:50.201Z,99022.00
2023-05-24T06:21:24.561Z,99024.00
2023-05-24T06:23:57.701Z,99024.00
2023-05-24T06:26:28.681Z,99023.00
2023-05-24T06:28:59.617Z,99021.00
2023-05-24T06:31:30.596Z,99028.00
2023-05-24T06:34:03.889Z,99022.00
2023-05-24T06:36:41.458Z,99022.00
2023-05-24T06:39:13.650Z,99023.00
2023-05-24T06:44:36.435Z,99034.00
2023-05-24T06:47:07.694Z,99033.00
2023-05-24T06:49:39.326Z,99032.00
2023-05-24T06:52:10.708Z,99036.00
2023-05-24T06:54:42.164Z,99039.00
2023-05-24T06:57:13.138Z,99048.00
2023-05-24T06:59:44.087Z,99054.00
2023-05-24T07:02:15.092Z,99060.00
2023-05-24T07:04:46.226Z,99063.00
2023-05-24T07:07:17.243Z,99063.00
2023-05-24T07:09:48.250Z,99074.00
2023-05-24T07:12:19.260Z,99070.00
2023-05-24T07:14:50.198Z,99076.00
2023-05-24T07:17:21.228Z,99065.00
2023-05-24T07:19:52.536Z,99087.00
2023-05-24T07:22:25.364Z,99081.00
2023-05-24T07:24:56.376Z,99084.00
2023-05-24T07:27:27.559Z,99117.00
2023-05-24T07:29:58.871Z,99097.00
2023-05-24T07:32:29.993Z,99090.00
2023-05-24T07:35:01.057Z,99083.00
2023-05-24T07:37:32.005Z,99088.00
2023-05-24T07:40:02.946Z,99086.00
2023-05-24T07:42:34.000Z,99088.00
2023-05-24T07:45:08.837Z,99088.00
2023-05-24T07:47:40.003Z,99082.00
2023-05-24T07:50:12.160Z,99090.00
2023-05-24T07:52:43.169Z,99098.00
2023-05-24T07:55:14.581Z,99084.00
2023-05-24T07:57:45.603Z,99089.00
2023-05-24T08:00:17.534Z,99092.00
2023-05-24T08:02:48.749Z,99100.00
2023-05-24T08:05:19.883Z,99093.00
2023-05-24T08:07:50.878Z,99104.00
2023-05-24T08:10:22.056Z,99097.00
2023-05-24T08:12:55.143Z,99114.00
2023-05-24T08:15:26.292Z,99107.00
2023-05-24T08:17:57.320Z,99105.00
2023-05-24T08:20:28.409Z,99108.00
2023-05-24T08:22:59.473Z,99114.00
2023-05-24T08:25:30.779Z,99112.00
2023-05-24T08:28:02.065Z,99124.00
2023-05-24T08:30:33.344Z,99123.00
2023-05-24T08:33:04.491Z,99122.00
2023-05-24T08:35:36.165Z,99123.00
2023-05-24T08:38:07.670Z,99118.00
2023-05-24T08:40:38.813Z,99153.00
2023-05-24T08:43:12.207Z,99121.00
2023-05-24T08:45:44.655Z,99126.00
2023-05-24T08:48:18.211Z,99120.00
2023-05-24T08:50:50.154Z,99123.00
2023-05-24T08:53:23.643Z,99123.00
2023-05-24T08:55:56.234Z,99138.00
2023-05-24T08:58:27.344Z,99125.00
2023-05-24T09:00:59.995Z,99125.00
2023-05-24T09:03:33.164Z,99128.00
2023-05-24T09:06:05.032Z,99130.00
2023-05-24T09:08:38.542Z,99128.00
2023-05-24T09:11:09.680Z,99121.00
2023-05-24T09:13:41.071Z,99127.00
2023-05-24T09:16:12.281Z,99128.00
2023-05-24T09:18:43.313Z,99129.00
2023-05-24T09:21:14.234Z,99125.00
2023-05-24T09:23:45.584Z,99118.00
2023-05-24T09:26:17.440Z,99119.00
2023-05-24T09:28:48.581Z,99120.00
2023-05-24T09:31:19.620Z,99128.00
2023-05-24T09:33:50.572Z,99128.00
2023-05-24T09:36:21.965Z,99124.00
2023-05-24T09:39:11.580Z,99128.00
2023-05-24T09:41:44.480Z,99132.00
2023-05-24T09:44:15.812Z,99129.00
2023-05-24T09:46:46.880Z,99138.00
2023-05-24T09:49:17.857Z,99133.00
2023-05-24T09:51:48.923Z,99134.00
2023-05-24T09:54:20.973Z,99132.00
2023-05-24T09:56:51.948Z,99137.00
2023-05-24T09:59:23.007Z,99139.00
2023-05-24T10:02:10.328Z,99133.00
2023-05-24T10:04:41.660Z,99134.00
2023-05-24T10:07:12.745Z,99135.00
2023-05-24T10:09:45.965Z,99139.00
2023-05-24T10:12:16.962Z,99135.00
2023-05-24T10:14:48.954Z,99137.00
2023-05-24T10:17:19.906Z,99135.00
2023-05-24T10:19:52.298Z,99133.00
2023-05-24T10:22:26.225Z,99134.00
2023-05-24T10:25:00.156Z,99131.00
2023-05-24T10:27:33.224Z,99136.00
2023-05-24T10:30:12.953Z,99139.00
2023-05-24T10:32:47.685Z,99148.00
2023-05-24T10:35:20.397Z,99130.00
2023-05-24T10:37:52.431Z,99133.00
2023-05-24T10:40:27.530Z,99128.00
2023-05-24T10:42:58.876Z,99131.00
2023-05-24T10:45:35.644Z,99138.00
2023-05-24T10:48:16.011Z,99129.00
2023-05-24T10:50:47.209Z,99115.00
2023-05-24T10:53:22.577Z,99121.00
2023-05-24T10:56:01.380Z,99118.00
2023-05-24T10:58:37.993Z,99117.00
2023-05-24T11:01:34.977Z,99116.00
2023-05-24T11:04:17.331Z,99114.00
2023-05-24T11:07:03.867Z,99114.00
2023-05-24T11:09:35.174Z,99104.00
2023-05-24T11:12:09.658Z,99109.00
2023-05-24T11:14:40.850Z,99112.00
2023-05-24T11:17:11.780Z,99107.00
2023-05-24T11:19:54.972Z,99110.00
2023-05-24T11:22:27.058Z,99103.00
2023-05-24T11:25:03.414Z,99107.00
2023-05-24T11:27:35.393Z,99104.00
2023-05-24T11:30:08.567Z,99105.00
2023-05-24T11:32:42.622Z,99104.00
2023-05-24T11:35:14.363Z,99091.00
2023-05-24T11:37:46.656Z,99094.00
2023-05-24T11:40:18.489Z,99098.00
2023-05-24T11:42:50.618Z,99083.00
2023-05-24T11:45:21.916Z,99086.00
2023-05-24T11:47:56.143Z,99093.00
2023-05-24T11:50:28.837Z,99085.00
2023-05-24T11:53:03.973Z,99080.00
2023-05-24T11:55:34.987Z,99077.00
2023-05-24T11:58:12.231Z,99075.00
2023-05-24T12:00:44.166Z,99071.00
2023-05-24T12:03:15.874Z,99072.00
2023-05-24T12:05:47.132Z,99080.00
2023-05-24T12:08:18.280Z,99070.00
2023-05-24T12:10:50.809Z,99062.00
2023-05-24T12:13:24.208Z,99059.00
2023-05-24T12:15:56.870Z,99068.00
2023-05-24T12:18:28.938Z,99059.00
2023-05-24T12:21:00.865Z,99066.00
2023-05-24T12:23:32.815Z,99071.00
2023-05-24T12:26:04.574Z,99056.00
2023-05-24T12:28:38.903Z,99064.00
2023-05-24T12:31:10.229Z,99043.00
2023-05-24T12:33:41.169Z,99077.00
2023-05-24T12:36:12.837Z,99047.00
2023-05-24T12:38:43.846Z,99037.00
2023-05-24T12:41:16.095Z,99049.00
2023-05-24T12:43:47.090Z,99037.00
2023-05-24T12:46:18.191Z,99044.00
2023-05-24T12:48:49.799Z,99034.00
2023-05-24T12:51:20.814Z,99053.00
2023-05-24T12:53:51.769Z,99025.00
2023-05-24T12:56:25.043Z,99031.00
2023-05-24T12:58:55.974Z,99020.00
2023-05-24T13:01:27.225Z,99029.00
2023-05-24T13:03:58.924Z,99018.00
2023-05-24T13:06:30.014Z,99024.00
2023-05-24T13:09:01.871Z,99019.00
2023-05-24T13:11:33.212Z,99020.00
2023-05-24T13:14:04.258Z,99022.00
2023-05-24T13:16:35.678Z,99034.00
2023-05-24T13:19:06.792Z,99017.00
2023-05-24T13:21:38.207Z,99016.00
2023-05-24T13:24:09.372Z,99013.00
2023-05-24T13:26:40.672Z,99005.00
2023-05-24T13:31:45.797Z,98997.00
2023-05-24T13:34:17.740Z,98996.00
2023-05-24T13:36:48.718Z,98996.00
2023-05-24T13:39:21.247Z,98995.00
2023-05-24T13:41:52.769Z,98989.00
2023-05-24T13:44:23.763Z,98990.00
2023-05-24T13:46:56.500Z,98993.00
2023-05-24T13:49:27.810Z,98978.00
2023-05-24T13:51:58.842Z,98978.00
2023-05-24T13:54:29.844Z,98982.00
2023-05-24T13:57:02.620Z,98978.00
2023-05-24T13:59:34.366Z,98988.00
2023-05-24T14:02:05.469Z,98981.00
2023-05-24T14:04:36.586Z,98980.00
2023-05-24T14:07:08.608Z,98974.00
2023-05-24T14:09:39.531Z,98975.00
2023-05-24T14:12:10.607Z,98976.00
2023-05-24T14:17:15.834Z,98986.00
2023-05-24T14:19:46.811Z,98976.00
2023-05-24T14:22:18.002Z,98973.00
2023-05-24T14:24:48.940Z,98974.00
2023-05-24T14:27:19.936Z,98961.00
2023-05-24T14:29:50.894Z,98969.00
2023-05-24T14:32:21.885Z,98972.00
2023-05-24T14:34:54.047Z,98976.00
2023-05-24T14:37:25.837Z,98969.00
2023-05-24T14:39:56.770Z,98968.00
2023-05-24T14:42:27.718Z,98977.00
2023-05-24T14:44:58.720Z,98972.00
2023-05-24T14:47:29.709Z,98972.00
2023-05-24T14:50:00.716Z,98974.00
2023-05-24T14:52:32.774Z,98973.00
2023-05-24T14:55:05.147Z,98985.00
2023-05-24T14:57:36.532Z,98975.00
2023-05-24T15:00:09.024Z,98977.00
2023-05-24T15:02:40.115Z,98981.00
2023-05-24T15:05:11.126Z,98969.00
2023-05-24T15:07:42.041Z,98968.00
2023-05-24T15:10:13.030Z,98964.00
2023-05-24T15:12:44.629Z,98966.00
2023-05-24T15:15:15.790Z,98971.00
2023-05-24T15:17:47.395Z,98964.00
2023-05-24T15:20:19.713Z,98968.00
2023-05-24T15:22:51.102Z,98965.00
2023-05-24T15:25:22.575Z,98974.00
2023-05-24T15:27:53.602Z,98975.00
2023-05-24T15:30:24.711Z,98967.00
2023-05-24T15:32:55.965Z,98969.00
2023-05-24T15:35:27.256Z,98967.00
2023-05-24T15:37:58.263Z,98963.00
2023-05-24T15:40:29.296Z,98964.00
2023-05-24T15:43:00.232Z,98962.00
2023-05-24T15:45:31.182Z,98963.00
2023-05-24T15:48:05.921Z,98963.00
2023-05-24T15:53:15.430Z,98972.00
2023-05-24T15:55:47.187Z,98976.00
2023-05-24T15:58:18.480Z,98970.00
2023-05-24T16:00:51.034Z,98964.00
2023-05-24T16:03:22.203Z,98969.00
2023-05-24T16:05:53.392Z,98972.00
2023-05-24T16:08:27.773Z,98972.00
2023-05-24T16:10:59.095Z,98968.00
2023-05-24T16:13:30.080Z,98967.00
2023-05-24T16:16:01.393Z,98962.00
2023-05-24T16:18:34.660Z,98971.00
2023-05-24T16:21:05.737Z,98956.00
2023-05-24T16:23:36.689Z,98952.00
2023-05-24T16:26:07.657Z,98968.00
2023-05-24T16:28:38.587Z,98967.00
2023-05-24T16:31:09.565Z,98965.00
2023-05-24T16:33:40.767Z,98956.00
2023-05-24T16:36:11.856Z,98951.00
2023-05-24T16:38:43.122Z,98959.00
2023-05-24T16:41:14.159Z,98959.00
2023-05-24T16:43:45.128Z,98955.00
2023-05-24T16:46:16.185Z,98961.00
2023-05-24T16:48:47.324Z,98957.00
2023-05-24T16:51:18.288Z,98961.00
2023-05-24T16:53:49.236Z,98954.00
2023-05-24T16:56:20.406Z,98959.00
2023-05-24T16:58:51.403Z,98955.00
2023-05-24T17:01:22.890Z,98960.00
2023-05-24T17:03:53.967Z,98965.00
2023-05-24T17:06:25.120Z,98948.00
2023-05-24T17:08:56.093Z,98972.00
2023-05-24T17:11:27.033Z,98950.00
2023-05-24T17:13:57.950Z,98958.00
2023-05-24T17:16:29.834Z,98962.00
2023-05-24T17:19:01.310Z,98955.00
2023-05-24T17:21:32.273Z,98959.00
2023-05-24T17:24:03.441Z,98978.00
2023-05-24T17:26:34.669Z,98968.00
2023-05-24T17:29:05.686Z,98969.00
2023-05-24T17:31:37.458Z,98966.00
2023-05-24T17:34:08.525Z,98969.00
2023-05-24T17:36:39.512Z,98975.00
2023-05-24T17:39:10.629Z,98987.00
2023-05-24T17:41:41.592Z,98979.00
2023-05-24T17:44:12.872Z,98978.00
2023-05-24T17:46:43.960Z,98988.00
2023-05-24T17:49:15.271Z,98982.00
2023-05-24T17:51:46.298Z,98987.00
2023-05-24T17:54:17.298Z,98990.00
2023-05-24T17:56:48.567Z,98978.00
2023-05-24T17:59:19.573Z,98988.00
2023-05-24T18:01:50.519Z,99001.00
2023-05-24T18:04:21.550Z,98993.00
2023-05-24T18:06:52.465Z,98994.00
2023-05-24T18:09:23.482Z,98985.00
2023-05-24T18:11:54.442Z,98997.00
2023-05-24T18:14:25.517Z,99019.00
2023-05-24T18:16:58.677Z,98999.00
2023-05-24T18:19:30.099Z,99010.00
2023-05-24T18:22:01.415Z,99002.00
2023-05-24T18:24:32.464Z,99010.00
2023-05-24T18:27:04.159Z,99013.00
2023-05-24T18:29:36.542Z,99010.00
2023-05-24T18:32:07.660Z,99013.00
2023-05-24T18:34:38.650Z,99013.00
2023-05-24T18:37:09.591Z,99021.00
2023-05-24T18:39:40.533Z,99020.00
2023-05-24T18:42:12.706Z,99021.00
2023-05-24T18:44:43.642Z,99025.00
2023-05-24T18:47:14.683Z,99031.00
2023-05-24T18:49:46.135Z,99033.00
2023-05-24T18:52:18.652Z,99031.00
2023-05-24T18:54:49.602Z,99042.00
2023-05-24T18:57:21.021Z,99039.00
2023-05-24T18:59:52.974Z,99042.00
2023-05-24T19:02:23.988Z,99047.00
2023-05-24T19:04:55.014Z,99038.00
2023-05-24T19:07:26.241Z,99059.00
2023-05-24T19:09:57.296Z,99055.00
2023-05-24T19:12:28.347Z,99063.00
2023-05-24T19:14:59.924Z,99058.00
2023-05-24T19:17:30.968Z,99065.00
2023-05-24T19:20:02.683Z,99068.00
2023-05-24T19:22:33.826Z,99062.00
2023-05-24T19:25:05.389Z,99073.00
2023-05-24T19:27:39.837Z,99071.00
2023-05-24T19:30:16.064Z,99064.00
2023-05-24T19:32:47.122Z,99073.00
2023-05-24T19:35:18.133Z,99071.00
2023-05-24T19:37:53.417Z,99080.00
2023-05-24T19:40:26.152Z,99077.00
2023-05-24T19:42:57.150Z,99081.00
2023-05-24T19:45:28.141Z,99085.00
2023-05-24T19:47:59.210Z,99080.00
2023-05-24T19:50:31.421Z,99079.00
2023-05-24T19:53:02.586Z,99078.00
2023-05-24T19:55:33.537Z,99107.00
2023-05-24T19:58:04.505Z,99087.00
2023-05-24T20:00:36.463Z,99082.00
2023-05-24T20:03:07.543Z,99080.00
2023-05-24T20:05:39.340Z,99091.00
2023-05-24T20:08:10.376Z,99081.00
2023-05-24T20:10:41.603Z,99074.00
2023-05-24T20:13:12.660Z,99081.00
2023-05-24T20:15:44.021Z,99102.00
2023-05-24T20:18:15.309Z,99082.00
2023-05-24T20:20:46.283Z,99086.00
2023-05-24T20:23:17.334Z,99084.00
2023-05-24T20:25:48.272Z,99090.00
2023-05-24T20:28:29.477Z,99085.00
2023-05-24T20:31:01.997Z,99095.00
2023-05-24T20:33:37.915Z,99101.00
2023-05-24T20:36:09.386Z,99123.00
2023-05-24T20:38:40.627Z,99105.00
2023-05-24T20:41:12.178Z,99092.00
2023-05-24T20:43:43.243Z,99105.00
2023-05-24T20:46:14.736Z,99101.00
2023-05-24T20:48:48.278Z,99108.00
2023-05-24T20:51:19.500Z,99114.00
2023-05-24T20:53:53.024Z,99104.00
2023-05-24T20:56:24.183Z,99105.00
2023-05-24T20:58:56.638Z,99106.00
2023-05-24T21:01:27.740Z,99111.00
2023-05-24T21:03:58.794Z,99102.00
2023-05-24T21:06:31.946Z,99103.00
2023-05-24T21:09:04.375Z,99103.00
2023-05-24T21:11:35.496Z,99101.00
2023-05-24T21:14:06.486Z,99109.00
2023-05-24T21:16:37.388Z,99097.00
2023-05-24T21:19:08.429Z,99103.00
2023-05-24T21:21:39.371Z,99098.00
2023-05-24T21:24:10.368Z,99105.00
2023-05-24T21:26:41.301Z,99103.00
2023-05-24T21:29:13.214Z,99107.00
2023-05-24T21:31:44.206Z,99105.00
2023-05-24T21:34:15.267Z,99095.00
2023-05-24T21:36:46.158Z,99105.00
2023-05-24T21:39:17.198Z,99101.00
2023-05-24T21:41:48.287Z,99106.00
2023-05-24T21:44:19.327Z,99110.00
2023-05-24T21:46:50.393Z,99114.00
2023-05-24T21:49:21.504Z,99114.00
2023-05-24T21:51:52.479Z,99121.00
2023-05-24T21:54:23.423Z,99121.00
2023-05-24T21:56:54.415Z,99123.00
2023-05-24T21:59:25.410Z,99125.00
2023-05-24T22:01:56.490Z,99122.00
2023-05-24T22:04:27.553Z,99128.00
2023-05-24T22:06:58.492Z,99124.00
2023-05-24T22:09:29.476Z,99138.00
2023-05-24T22:12:00.798Z,99129.00
2023-05-24T22:14:31.856Z,99131.00
2023-05-24T22:17:02.776Z,99135.00
2023-05-24T22:22:09.916Z,99132.00
2023-05-24T22:24:41.047Z,99122.00
2023-05-24T22:27:13.836Z,99150.00
2023-05-24T22:29:44.994Z,99121.00
2023-05-24T22:32:16.114Z,99121.00
2023-05-24T22:34:47.269Z,99120.00
2023-05-24T22:37:18.204Z,99110.00
2023-05-24T22:39:49.164Z,99117.00
2023-05-24T22:42:20.183Z,99123.00
2023-05-24T22:44:51.249Z,99125.00
2023-05-24T22:47:24.001Z,99124.00
2023-05-24T22:49:54.958Z,99114.00
2023-05-24T22:52:26.578Z,99114.00
2023-05-24T22:54:57.621Z,99116.00
2023-05-24T22:57:28.762Z,99113.00
2023-05-24T22:59:59.644Z,99115.00
2023-05-24T23:02:30.604Z,99111.00
2023-05-24T23:05:02.988Z,99105.00
2023-05-24T23:07:33.961Z,99116.00
2023-05-24T23:10:05.375Z,99116.00
2023-05-24T23:12:36.468Z,99118.00
2023-05-24T23:15:09.654Z,99113.00
2023-05-24T23:17:40.700Z,99118.00
2023-05-24T23:20:14.386Z,99110.00
2023-05-24T23:22:46.800Z,99115.00
2023-05-24T23:25:17.739Z,99108.00
2023-05-24T23:27:48.623Z,99118.00
2023-05-24T23:30:19.611Z,99123.00
2023-05-24T23:32:50.554Z,99124.00
2023-05-24T23:35:21.525Z,99110.00
2023-05-24T23:37:53.799Z,99120.00
2023-05-24T23:40:27.219Z,99121.00
2023-05-24T23:42:58.118Z,99120.00
2023-05-24T23:45:29.047Z,99114.00
2023-05-24T23:48:00.252Z,99121.00
2023-05-24T23:50:37.340Z,99117.00
2023-05-24T23:53:14.008Z,99112.00
2023-05-24T23:55:45.194Z,99115.00
2023-05-24T23:58:16.446Z,99116.00
